Time;durP1;ratioP1;P1;durP2;ratioP2;P2;SDS_P1;SDS_P2;PMS_P1;PMS_P2;Temp;Humidity;BMP_temperature;BMP_pressure;BME280_temperature;BME280_humidity;BME280_pressure;Samples;Min_cycle;Max_cycle;Signal;HPM_P1;HPM_P2
2021/05/28 00:00:59;;;;;;;1.33;0.65;;;21.80;34.90;;;;;;4391111;32;20069;-37
2021/05/28 00:03:26;;;;;;;1.70;0.60;;;21.80;35.00;;;;;;4390609;32;20061;-36
2021/05/28 00:05:52;;;;;;;2.90;0.50;;;21.80;35.00;;;;;;4390726;32;20072;-37
2021/05/28 00:08:19;;;;;;;3.45;0.50;;;21.80;35.10;;;;;;4390843;32;20638;-37
2021/05/28 00:10:45;;;;;;;1.77;0.60;;;21.80;35.10;;;;;;4390404;32;20525;-37
2021/05/28 00:13:12;;;;;;;2.28;0.60;;;21.70;35.10;;;;;;4390401;32;20153;-37
2021/05/28 00:15:40;;;;;;;1.15;0.50;;;21.70;35.20;;;;;;4387781;32;20081;-37
2021/05/28 00:18:08;;;;;;;2.58;0.60;;;21.70;35.20;;;;;;4388253;32;20528;-37
2021/05/28 00:20:35;;;;;;;4.57;0.50;;;21.70;35.40;;;;;;4371508;32;20054;-38
2021/05/28 00:23:01;;;;;;;2.62;0.70;;;21.70;35.40;;;;;;4360718;32;20101;-37
2021/05/28 00:25:29;;;;;;;3.42;0.57;;;21.70;35.50;;;;;;4372688;32;20078;-37
2021/05/28 00:27:56;;;;;;;5.28;0.70;;;21.70;35.60;;;;;;4360580;32;20074;-36
2021/05/28 00:30:22;;;;;;;2.00;0.50;;;21.60;35.60;;;;;;4373145;32;20078;-37
2021/05/28 00:32:49;;;;;;;1.30;0.65;;;21.50;35.70;;;;;;4372868;32;20074;-36
2021/05/28 00:35:17;;;;;;;4.15;0.50;;;21.50;35.90;;;;;;4360320;32;20145;-37
2021/05/28 00:37:44;;;;;;;2.62;0.90;;;21.40;36.70;;;;;;4360379;32;20146;-37
2021/05/28 00:40:13;;;;;;;1.12;0.50;;;21.40;36.10;;;;;;4360757;32;20147;-37
2021/05/28 00:42:39;;;;;;;2.00;0.85;;;21.40;36.30;;;;;;4373175;32;20080;-37
2021/05/28 00:45:07;;;;;;;1.00;0.62;;;21.30;36.10;;;;;;4360789;32;20554;-37
2021/05/28 00:47:34;;;;;;;6.18;0.60;;;21.30;36.30;;;;;;4373931;32;20090;-38
2021/05/28 00:50:00;;;;;;;2.42;1.25;;;21.30;36.60;;;;;;4361798;32;20074;-37
2021/05/28 00:52:27;;;;;;;1.08;0.50;;;21.20;36.60;;;;;;4378193;32;20550;-38
2021/05/28 00:54:53;;;;;;;2.55;0.98;;;21.30;36.70;;;;;;4376938;32;20061;-36
2021/05/28 00:57:21;;;;;;;2.40;0.60;;;21.30;36.60;;;;;;4389951;32;20525;-37
2021/05/28 00:59:51;;;;;;;5.30;0.70;;;21.30;36.60;;;;;;4390104;32;20066;-36
2021/05/28 01:02:18;;;;;;;4.43;0.80;;;21.30;36.80;;;;;;4376489;32;20092;-38
2021/05/28 01:04:44;;;;;;;2.80;0.80;;;21.30;37.00;;;;;;4389548;32;20158;-38
2021/05/28 01:07:11;;;;;;;9.20;0.85;;;21.30;37.20;;;;;;4389366;32;20143;-37
2021/05/28 01:09:37;;;;;;;4.60;1.27;;;21.30;37.20;;;;;;4389716;32;20082;-37
2021/05/28 01:12:04;;;;;;;4.20;1.20;;;21.40;37.20;;;;;;4389674;32;20450;-38
2021/05/28 01:14:30;;;;;;;10.73;1.92;;;21.50;37.20;;;;;;4389996;32;20153;-37
2021/05/28 01:16:57;;;;;;;5.20;1.67;;;21.60;37.20;;;;;;4389743;32;20081;-37
2021/05/28 01:19:25;;;;;;;26.58;6.57;;;21.60;37.10;;;;;;4389554;32;20084;-37
2021/05/28 01:21:53;;;;;;;30.20;5.97;;;21.60;37.20;;;;;;4389783;32;20065;-38
2021/05/28 01:24:20;;;;;;;7.43;2.05;;;21.70;37.20;;;;;;4389536;32;20077;-38
2021/05/28 01:26:46;;;;;;;14.60;3.00;;;21.70;37.10;;;;;;4375923;32;20073;-38
2021/05/28 01:29:14;;;;;;;14.60;4.57;;;21.80;37.00;;;;;;4389578;32;20066;-38
2021/05/28 01:31:41;;;;;;;13.90;1.95;;;21.80;37.00;;;;;;4389738;32;20146;-38
2021/05/28 01:34:07;;;;;;;8.32;2.12;;;21.80;37.00;;;;;;4389660;32;20586;-37
2021/05/28 01:36:33;;;;;;;6.82;2.12;;;21.80;37.10;;;;;;4389312;32;20084;-38
2021/05/28 01:39:00;;;;;;;6.80;2.08;;;21.90;37.10;;;;;;4389430;32;20058;-40
2021/05/28 01:41:30;;;;;;;9.40;2.17;;;22.00;37.00;;;;;;4375270;32;20057;-37
2021/05/28 01:43:57;;;;;;;8.80;1.48;;;22.20;37.30;;;;;;4375195;32;20093;-38
2021/05/28 01:46:24;;;;;;;12.80;3.60;;;22.40;36.80;;;;;;4375071;32;20086;-38
2021/05/28 01:48:50;;;;;;;8.80;2.85;;;22.60;36.50;;;;;;4389555;32;20070;-39
2021/05/28 01:51:17;;;;;;;13.75;3.22;;;22.90;36.00;;;;;;4389182;32;20071;-39
2021/05/28 01:53:43;;;;;;;9.02;3.70;;;23.10;35.40;;;;;;4375695;32;20073;-38
2021/05/28 01:56:10;;;;;;;10.38;3.22;;;23.30;34.60;;;;;;4388970;32;20098;-38
2021/05/28 01:58:36;;;;;;;11.00;2.75;;;23.60;34.20;;;;;;4389147;32;20065;-39
2021/05/28 02:01:03;;;;;;;10.55;1.90;;;23.80;33.70;;;;;;4375020;32;20092;-38
2021/05/28 02:03:30;;;;;;;8.10;2.25;;;24.10;33.20;;;;;;4375234;32;20077;-38
2021/05/28 02:05:57;;;;;;;9.20;2.92;;;24.40;33.00;;;;;;4389351;32;20162;-38
2021/05/28 02:08:23;;;;;;;10.85;2.40;;;24.70;32.60;;;;;;4389082;32;20158;-38
2021/05/28 02:10:50;;;;;;;8.25;2.15;;;24.90;32.20;;;;;;4388942;32;20101;-39
2021/05/28 02:13:16;;;;;;;8.65;1.73;;;25.20;32.40;;;;;;4389262;32;20061;-39
2021/05/28 02:15:43;;;;;;;9.13;2.53;;;25.40;31.50;;;;;;4389695;32;20097;-38
2021/05/28 02:18:10;;;;;;;6.80;1.83;;;25.70;31.30;;;;;;4374167;32;20531;-37
2021/05/28 02:20:36;;;;;;;8.63;1.60;;;25.90;31.20;;;;;;4393065;32;20140;-38
2021/05/28 02:23:03;;;;;;;6.25;2.30;;;26.20;31.00;;;;;;4390177;32;20068;-39
2021/05/28 02:25:29;;;;;;;6.45;1.95;;;26.40;30.40;;;;;;4404326;32;20159;-38
2021/05/28 02:27:56;;;;;;;5.50;1.37;;;26.70;30.00;;;;;;4403742;32;20065;-39
2021/05/28 02:30:22;;;;;;;5.75;1.23;;;26.90;29.80;;;;;;4404451;32;20548;-40
2021/05/28 02:32:49;;;;;;;4.47;0.82;;;27.00;29.40;;;;;;4403858;32;20577;-40
2021/05/28 02:35:15;;;;;;;2.15;1.20;;;27.20;29.30;;;;;;4390157;32;20145;-38
2021/05/28 02:37:42;;;;;;;7.45;1.05;;;27.20;29.20;;;;;;4403711;32;20065;-39
2021/05/28 02:40:09;;;;;;;6.07;1.10;;;27.40;29.00;;;;;;4403931;32;20096;-38
2021/05/28 02:42:36;;;;;;;11.77;1.52;;;27.60;28.90;;;;;;4403244;32;20505;-39
2021/05/28 02:45:05;;;;;;;6.93;0.85;;;27.70;28.70;;;;;;4403257;32;20547;-38
2021/05/28 02:47:31;;;;;;;1.70;0.80;;;27.90;28.60;;;;;;4403676;32;20072;-39
2021/05/28 02:49:59;;;;;;;2.72;0.85;;;28.10;28.50;;;;;;4403447;32;20461;-40
2021/05/28 02:52:26;;;;;;;6.35;0.93;;;28.20;28.20;;;;;;4403613;32;20521;-40
2021/05/28 02:54:53;;;;;;;7.25;1.10;;;28.40;28.10;;;;;;4403460;32;20201;-41
2021/05/28 02:57:19;;;;;;;7.20;0.82;;;28.50;27.80;;;;;;4403770;32;20107;-39
2021/05/28 02:59:45;;;;;;;8.73;0.90;;;28.60;27.90;;;;;;4403616;32;20070;-42
2021/05/28 03:02:12;;;;;;;8.77;1.23;;;28.60;27.80;;;;;;4403460;32;20077;-38
2021/05/28 03:04:38;;;;;;;5.00;0.85;;;28.70;27.80;;;;;;4389165;32;20076;-40
2021/05/28 03:07:05;;;;;;;2.47;1.35;;;28.80;27.70;;;;;;4403173;32;20514;-40
2021/05/28 03:09:31;;;;;;;3.85;0.88;;;28.80;27.50;;;;;;4403756;32;20068;-39
2021/05/28 03:11:58;;;;;;;3.25;0.95;;;28.90;27.50;;;;;;4403301;32;20058;-40
2021/05/28 03:14:24;;;;;;;10.55;1.20;;;29.00;27.70;;;;;;4402826;32;20159;-40
2021/05/28 03:16:51;;;;;;;4.95;1.00;;;29.00;27.60;;;;;;4403598;32;20093;-41
2021/05/28 03:19:30;;;;;;;3.42;0.80;;;29.10;27.60;;;;;;4403334;32;20069;-39
2021/05/28 03:22:40;;;;;;;9.25;0.80;;;29.20;27.50;;;;;;4390676;32;20073;-40
2021/05/28 03:24:47;;;;;;;5.75;1.27;;;29.40;27.50;;;;;;4381528;32;20146;-40
2021/05/28 03:27:14;;;;;;;8.88;1.02;;;29.60;27.50;;;;;;4388306;32;20521;-40
2021/05/28 03:29:40;;;;;;;6.82;1.12;;;29.80;27.50;;;;;;4387820;32;20544;-41
2021/05/28 03:32:07;;;;;;;7.25;1.05;;;30.00;27.40;;;;;;4387730;32;20041;-40
2021/05/28 03:34:33;;;;;;;7.93;1.40;;;30.20;27.30;;;;;;4387919;32;20067;-41
2021/05/28 03:37:00;;;;;;;4.20;1.33;;;30.40;27.20;;;;;;4387656;32;20066;-41
2021/05/28 03:39:27;;;;;;;6.30;0.98;;;30.40;27.00;;;;;;4388023;32;20451;-40
2021/05/28 03:41:53;;;;;;;4.62;1.45;;;30.60;26.90;;;;;;4373885;32;20073;-40
2021/05/28 03:44:20;;;;;;;3.65;0.95;;;30.70;27.00;;;;;;4388330;32;20093;-41
2021/05/28 03:46:46;;;;;;;2.80;0.90;;;31.10;26.90;;;;;;4388032;32;20069;-41
2021/05/28 03:49:13;;;;;;;5.43;0.70;;;31.60;26.80;;;;;;4340432;33;20545;-40
2021/05/28 03:51:39;;;;;;;9.20;1.23;;;32.10;26.40;;;;;;4340543;32;20502;-41
2021/05/28 03:54:06;;;;;;;6.32;1.33;;;32.60;26.20;;;;;;4328059;33;20059;-40
2021/05/28 03:56:32;;;;;;;4.43;0.93;;;32.90;25.60;;;;;;4340772;32;20467;-41
2021/05/28 03:58:59;;;;;;;9.63;0.80;;;33.10;25.60;;;;;;4340439;32;20071;-41
2021/05/28 04:01:25;;;;;;;6.97;1.00;;;33.30;25.50;;;;;;4328273;33;20149;-40
2021/05/28 04:03:52;;;;;;;7.10;1.98;;;33.40;25.50;;;;;;4340632;33;20091;-41
2021/05/28 04:06:18;;;;;;;14.30;2.35;;;33.60;25.90;;;;;;4340296;33;20075;-41
2021/05/28 04:08:44;;;;;;;10.85;1.70;;;33.90;25.90;;;;;;4340456;32;20491;-41
2021/05/28 04:11:11;;;;;;;5.82;1.20;;;34.20;25.70;;;;;;4340138;33;20066;-42
2021/05/28 04:13:38;;;;;;;6.37;1.40;;;34.50;25.60;;;;;;4339881;32;20101;-41
2021/05/28 04:16:04;;;;;;;9.63;1.48;;;34.80;25.30;;;;;;4340253;32;20515;-42
2021/05/28 04:18:33;;;;;;;5.80;1.92;;;34.90;25.10;;;;;;4340023;32;20062;-41
2021/05/28 04:21:00;;;;;;;3.78;1.37;;;35.00;25.00;;;;;;4385763;32;20053;-41
2021/05/28 04:23:26;;;;;;;10.00;1.83;;;35.10;25.00;;;;;;4402721;32;20164;-41
2021/05/28 04:25:53;;;;;;;4.68;1.60;;;35.10;25.00;;;;;;4403239;32;20150;-41
2021/05/28 04:28:19;;;;;;;4.87;1.85;;;35.20;25.20;;;;;;4402675;32;20152;-41
2021/05/28 04:30:46;;;;;;;6.72;2.15;;;35.20;25.10;;;;;;4402781;32;20088;-41
2021/05/28 04:33:12;;;;;;;41.63;4.50;;;35.30;25.10;;;;;;4402636;32;20148;-40
2021/05/28 04:35:39;;;;;;;11.82;1.48;;;35.30;25.00;;;;;;4402380;32;20058;-41
2021/05/28 04:38:05;;;;;;;8.48;2.10;;;35.30;25.10;;;;;;4357107;32;20082;-41
2021/05/28 04:40:32;;;;;;;6.72;1.25;;;35.30;25.20;;;;;;4369789;32;20150;-41
2021/05/28 04:42:59;;;;;;;8.32;1.48;;;35.40;25.10;;;;;;4372048;32;20105;-41
2021/05/28 04:45:26;;;;;;;5.40;1.42;;;35.60;25.20;;;;;;4372870;32;20058;-41
2021/05/28 04:47:53;;;;;;;21.80;2.92;;;35.60;25.20;;;;;;4360642;32;20069;-41
2021/05/28 04:50:20;;;;;;;9.70;1.80;;;35.70;25.70;;;;;;4372620;32;20097;-41
2021/05/28 04:52:47;;;;;;;35.35;4.87;;;35.70;25.00;;;;;;4372500;32;20106;-41
2021/05/28 04:55:14;;;;;;;13.48;2.05;;;35.70;25.00;;;;;;4372377;32;20152;-40
2021/05/28 04:57:41;;;;;;;7.20;1.10;;;35.60;24.90;;;;;;4372514;32;20069;-41
2021/05/28 05:00:08;;;;;;;5.47;1.52;;;35.50;25.30;;;;;;4372682;32;20116;-42
2021/05/28 05:02:35;;;;;;;5.87;1.60;;;35.60;25.30;;;;;;4359477;32;20090;-41
2021/05/28 05:05:02;;;;;;;9.00;1.67;;;35.60;25.00;;;;;;4372271;32;20078;-42
2021/05/28 05:07:31;;;;;;;19.42;2.50;;;35.60;24.80;;;;;;4372542;32;20088;-42
2021/05/28 05:09:58;;;;;;;7.25;1.50;;;35.60;24.90;;;;;;4400514;32;20072;-41
2021/05/28 05:12:24;;;;;;;6.03;1.67;;;35.60;25.00;;;;;;4405103;32;20073;-41
2021/05/28 05:14:50;;;;;;;9.00;2.40;;;35.60;24.80;;;;;;4356688;32;20199;-41
2021/05/28 05:17:17;;;;;;;6.28;2.25;;;35.40;24.80;;;;;;4344853;32;20131;-42
2021/05/28 05:19:43;;;;;;;4.45;2.40;;;35.30;25.00;;;;;;4356768;32;20549;-42
2021/05/28 05:22:10;;;;;;;8.40;2.60;;;35.30;25.10;;;;;;4356822;32;20067;-42
2021/05/28 05:24:36;;;;;;;13.62;3.40;;;35.40;25.00;;;;;;4356931;32;20157;-41
2021/05/28 05:27:03;;;;;;;9.45;2.83;;;35.50;25.30;;;;;;4356960;32;20081;-40
2021/05/28 05:29:30;;;;;;;8.50;3.10;;;35.60;25.50;;;;;;4357251;32;20268;-40
2021/05/28 05:31:56;;;;;;;12.57;3.17;;;35.70;25.30;;;;;;4356706;32;20586;-41
2021/05/28 05:34:23;;;;;;;7.80;3.17;;;35.80;25.10;;;;;;4356875;32;20062;-40
2021/05/28 05:36:49;;;;;;;10.90;3.25;;;35.70;25.00;;;;;;4356840;32;20509;-41
2021/05/28 05:39:16;;;;;;;11.25;2.85;;;35.40;25.00;;;;;;4356950;32;20062;-41
2021/05/28 05:41:42;;;;;;;6.80;2.50;;;35.10;25.40;;;;;;4356691;32;20078;-41
2021/05/28 05:44:09;;;;;;;8.18;2.92;;;34.90;25.70;;;;;;4357178;32;20090;-41
2021/05/28 05:46:35;;;;;;;7.07;2.97;;;34.70;26.00;;;;;;4382962;32;20084;-41
2021/05/28 05:49:02;;;;;;;14.25;2.80;;;34.40;26.50;;;;;;4389674;32;20080;-40
2021/05/28 05:51:29;;;;;;;7.95;2.53;;;34.20;26.80;;;;;;4375086;32;20105;-41
2021/05/28 05:53:55;;;;;;;10.00;2.28;;;34.10;27.30;;;;;;4389259;32;20074;-41
2021/05/28 05:56:21;;;;;;;5.85;1.92;;;34.20;27.40;;;;;;4375056;32;20519;-40
2021/05/28 05:58:48;;;;;;;6.37;2.10;;;34.30;28.00;;;;;;4389280;32;20180;-41
2021/05/28 06:01:14;;;;;;;6.35;1.52;;;34.50;27.60;;;;;;4389170;32;20074;-41
2021/05/28 06:03:41;;;;;;;7.28;2.00;;;34.80;27.40;;;;;;4388609;32;20074;-42
2021/05/28 06:06:07;;;;;;;9.25;1.62;;;35.10;27.10;;;;;;4388740;32;20058;-40
2021/05/28 06:08:34;;;;;;;10.65;2.03;;;35.30;27.70;;;;;;4388668;32;20068;-41
2021/05/28 06:11:00;;;;;;;6.72;2.33;;;35.50;27.20;;;;;;4389326;32;20057;-41
2021/05/28 06:13:27;;;;;;;5.72;1.55;;;35.60;27.00;;;;;;4389590;32;20062;-41
2021/05/28 06:15:53;;;;;;;7.95;1.73;;;35.80;26.80;;;;;;4388781;32;20057;-41
2021/05/28 06:18:20;;;;;;;5.85;2.05;;;35.70;26.80;;;;;;4388907;32;20066;-40
2021/05/28 06:20:46;;;;;;;6.70;1.95;;;35.60;27.00;;;;;;4377358;32;20127;-41
2021/05/28 06:23:13;;;;;;;5.12;1.55;;;35.60;27.00;;;;;;4388460;32;20166;-41
2021/05/28 06:25:45;;;;;;;3.28;1.40;;;35.60;27.00;;;;;;4388697;32;20062;-41
2021/05/28 06:28:12;;;;;;;4.50;1.65;;;35.60;27.10;;;;;;4387347;32;20081;-41
2021/05/28 06:30:38;;;;;;;9.00;1.40;;;35.60;27.30;;;;;;4389081;32;20058;-42
2021/05/28 06:33:06;;;;;;;2.53;1.35;;;35.80;26.90;;;;;;4387541;32;20058;-42
2021/05/28 06:35:37;;;;;;;4.12;1.70;;;35.90;26.90;;;;;;4388751;32;20472;-42
2021/05/28 06:38:04;;;;;;;12.27;2.25;;;36.00;26.80;;;;;;4388692;32;20061;-42
2021/05/28 06:40:31;;;;;;;7.37;1.85;;;36.10;26.60;;;;;;4388547;32;20072;-42
2021/05/28 06:42:57;;;;;;;5.18;2.42;;;36.10;26.80;;;;;;4400647;32;20077;-41
2021/05/28 06:45:24;;;;;;;8.02;2.17;;;36.30;26.70;;;;;;4401315;32;20556;-41
2021/05/28 06:47:50;;;;;;;11.02;2.40;;;36.50;26.50;;;;;;4388478;32;20065;-41
2021/05/28 06:50:17;;;;;;;9.77;2.20;;;36.80;26.20;;;;;;4401053;32;20508;-42
2021/05/28 06:52:44;;;;;;;7.62;2.20;;;37.10;26.00;;;;;;4400900;32;20154;-42
2021/05/28 06:55:11;;;;;;;13.70;3.47;;;37.20;25.50;;;;;;4401254;32;20598;-42
2021/05/28 06:57:37;;;;;;;11.27;3.47;;;37.10;24.70;;;;;;4388404;32;20533;-42
2021/05/28 07:00:08;;;;;;;12.50;4.07;;;37.10;25.00;;;;;;4388460;32;20218;-42
2021/05/28 07:02:36;;;;;;;11.12;4.37;;;37.00;25.60;;;;;;4400777;32;20554;-41
2021/05/28 07:05:04;;;;;;;10.35;3.40;;;37.00;26.00;;;;;;4400674;32;20238;-42
2021/05/28 07:07:30;;;;;;;15.48;4.35;;;37.10;25.40;;;;;;4401280;32;20697;-42
2021/05/28 07:09:57;;;;;;;15.07;5.00;;;37.00;24.60;;;;;;4400996;32;20085;-42
2021/05/28 07:12:23;;;;;;;9.00;4.25;;;36.90;24.60;;;;;;4400922;32;20102;-42
2021/05/28 07:14:50;;;;;;;14.77;4.12;;;36.80;25.40;;;;;;4389665;32;20057;-42
2021/05/28 07:17:16;;;;;;;12.95;3.80;;;36.90;25.60;;;;;;4387978;32;20061;-43
2021/05/28 07:19:43;;;;;;;12.23;3.05;;;37.10;25.80;;;;;;4388067;32;20510;-41
2021/05/28 07:22:09;;;;;;;8.48;3.28;;;37.30;25.70;;;;;;4387756;32;20529;-42
2021/05/28 07:24:36;;;;;;;10.00;3.03;;;37.70;25.50;;;;;;4388152;32;20163;-41
2021/05/28 07:27:02;;;;;;;4.47;2.47;;;38.00;25.30;;;;;;4388269;32;20521;-42
2021/05/28 07:29:29;;;;;;;8.55;2.30;;;38.30;24.90;;;;;;4388030;32;20532;-42
2021/05/28 07:31:56;;;;;;;9.10;2.85;;;38.50;25.00;;;;;;4387932;32;20469;-41
2021/05/28 07:34:23;;;;;;;6.78;2.85;;;38.80;25.00;;;;;;4387654;32;20157;-43
2021/05/28 07:36:49;;;;;;;10.20;3.25;;;39.10;24.70;;;;;;4387543;32;20084;-42
2021/05/28 07:39:19;;;;;;;12.73;8.10;;;39.40;24.60;;;;;;4387598;32;20073;-43
2021/05/28 07:41:46;;;;;;;8.95;4.80;;;39.50;24.20;;;;;;4388036;32;20133;-42
2021/05/28 07:44:12;;;;;;;9.70;4.85;;;39.70;23.80;;;;;;4387700;32;20545;-42
2021/05/28 07:46:45;;;;;;;11.05;5.55;;;39.80;23.80;;;;;;4387631;32;20513;-42
2021/05/28 07:49:15;;;;;;;11.80;5.20;;;39.90;23.60;;;;;;4387509;32;20062;-42
2021/05/28 07:51:41;;;;;;;12.02;5.45;;;39.80;23.20;;;;;;4387782;32;20178;-44
2021/05/28 07:54:09;;;;;;;13.18;4.60;;;39.70;23.40;;;;;;4387933;32;20078;-43
2021/05/28 07:56:36;;;;;;;7.05;3.97;;;39.70;22.90;;;;;;4387799;32;20100;-42
2021/05/28 07:59:03;;;;;;;5.93;2.12;;;39.70;22.90;;;;;;4388177;32;20081;-42
2021/05/28 08:01:30;;;;;;;8.98;1.98;;;39.70;22.10;;;;;;4387700;32;20151;-42
2021/05/28 08:03:57;;;;;;;8.32;2.30;;;39.60;22.00;;;;;;4387895;32;20074;-42
2021/05/28 08:06:24;;;;;;;9.27;3.87;;;39.60;21.90;;;;;;4387868;32;20498;-43
2021/05/28 08:08:51;;;;;;;4.45;1.45;;;39.60;22.30;;;;;;4373962;32;20077;-41
2021/05/28 08:11:17;;;;;;;9.70;2.55;;;39.50;22.10;;;;;;4373461;32;20081;-43
2021/05/28 08:13:44;;;;;;;5.53;1.52;;;39.30;22.00;;;;;;4387619;32;20066;-43
2021/05/28 08:16:10;;;;;;;11.30;2.28;;;39.00;22.40;;;;;;4374065;32;20229;-42
2021/05/28 08:18:37;;;;;;;7.60;2.78;;;38.90;22.60;;;;;;4390796;32;20153;-42
2021/05/28 08:21:05;;;;;;;8.20;2.80;;;38.90;22.50;;;;;;4397443;32;20090;-44
2021/05/28 08:23:32;;;;;;;2.20;1.30;;;38.90;21.90;;;;;;4404997;32;20073;-43
2021/05/28 08:25:58;;;;;;;215.05;17.50;;;38.90;22.00;;;;;;4405294;32;20176;-43
2021/05/28 08:28:25;;;;;;;6.53;1.33;;;38.90;22.10;;;;;;4405038;32;20086;-42
2021/05/28 08:30:51;;;;;;;7.25;1.83;;;39.00;21.80;;;;;;4391284;32;20109;-42
2021/05/28 08:33:18;;;;;;;3.45;1.55;;;39.00;21.70;;;;;;4405090;32;20077;-43
2021/05/28 08:35:44;;;;;;;5.65;1.10;;;39.20;21.50;;;;;;4405321;32;20069;-42
2021/05/28 08:38:11;;;;;;;6.10;1.02;;;39.30;21.30;;;;;;4405050;32;20138;-41
2021/05/28 08:40:38;;;;;;;1.60;0.73;;;39.30;21.40;;;;;;4405379;32;20062;-42
2021/05/28 08:43:06;;;;;;;1.50;0.40;;;39.20;21.20;;;;;;4372578;32;20163;-41
2021/05/28 08:45:38;;;;;;;5.65;1.27;;;39.20;21.30;;;;;;4372427;32;20061;-43
2021/05/28 08:48:05;;;;;;;4.32;0.95;;;39.10;21.10;;;;;;4372369;32;20149;-43
2021/05/28 08:50:32;;;;;;;4.00;0.90;;;39.20;21.10;;;;;;4372680;32;20078;-43
2021/05/28 08:53:16;;;;;;;2.85;0.70;;;39.20;21.30;;;;;;4372345;32;20078;-42
2021/05/28 08:55:44;;;;;;;2.35;0.82;;;39.30;21.10;;;;;;4359656;32;20065;-42
2021/05/28 08:58:17;;;;;;;4.82;0.55;;;39.20;21.10;;;;;;4372497;32;20100;-42
2021/05/28 09:00:47;;;;;;;5.22;0.40;;;39.10;21.00;;;;;;4360182;32;20069;-40
2021/05/28 09:03:21;;;;;;;58.15;3.83;;;39.00;20.80;;;;;;4360264;32;20085;-42
2021/05/28 09:05:49;;;;;;;2.67;0.55;;;38.90;20.90;;;;;;4372378;32;20096;-42
2021/05/28 09:08:28;;;;;;;1.65;0.40;;;38.80;20.80;;;;;;4359360;32;20081;-42
2021/05/28 09:11:09;;;;;;;4.57;0.60;;;38.70;20.90;;;;;;4372645;32;20074;-41
2021/05/28 09:13:46;;;;;;;2.42;0.30;;;38.70;21.20;;;;;;4381203;32;20514;-41
2021/05/28 09:16:18;;;;;;;2.58;0.50;;;38.70;21.00;;;;;;4391213;32;20072;-42
2021/05/28 09:18:48;;;;;;;4.05;0.40;;;38.80;20.70;;;;;;4404857;32;20068;-41
2021/05/28 09:21:28;;;;;;;2.58;0.40;;;38.80;20.70;;;;;;4396436;32;20076;-42
2021/05/28 09:23:55;;;;;;;4.70;0.47;;;38.90;21.00;;;;;;4375887;32;20138;-41
2021/05/28 09:26:24;;;;;;;2.78;0.40;;;38.90;20.70;;;;;;4389362;32;20100;-41
2021/05/28 09:28:51;;;;;;;6.55;0.45;;;38.80;20.70;;;;;;4375018;32;20093;-40
2021/05/28 09:31:25;;;;;;;1.73;0.30;;;38.80;20.60;;;;;;4389274;32;20074;-42
2021/05/28 09:33:54;;;;;;;3.17;0.30;;;38.60;20.30;;;;;;4375298;32;20435;-42
2021/05/28 09:36:39;;;;;;;6.00;0.37;;;38.40;20.30;;;;;;4389096;32;20077;-42
2021/05/28 09:39:14;;;;;;;0.62;0.28;;;38.20;20.60;;;;;;4366580;32;20543;-41
2021/05/28 09:41:51;;;;;;;3.08;0.50;;;38.00;20.50;;;;;;4389349;32;20062;-41
2021/05/28 09:44:28;;;;;;;3.72;0.35;;;37.80;20.80;;;;;;4375443;32;20073;-42
2021/05/28 09:47:04;;;;;;;2.10;0.43;;;37.80;20.80;;;;;;4389024;32;20084;-41
2021/05/28 09:49:37;;;;;;;1.60;0.20;;;37.70;20.80;;;;;;4389029;32;20468;-42
2021/05/28 09:52:09;;;;;;;1.67;0.70;;;37.80;20.60;;;;;;4388997;32;20092;-42
2021/05/28 09:54:35;;;;;;;5.28;0.30;;;37.90;21.00;;;;;;4389054;32;20066;-42
2021/05/28 09:57:02;;;;;;;3.65;0.30;;;38.10;20.70;;;;;;4389198;32;20058;-42
2021/05/28 09:59:45;;;;;;;2.55;0.20;;;38.30;20.40;;;;;;4389537;32;20081;-43
2021/05/28 10:02:27;;;;;;;2.55;0.22;;;38.40;20.30;;;;;;4388839;32;20128;-42
2021/05/28 10:04:59;;;;;;;2.25;0.20;;;38.30;20.20;;;;;;4375501;32;20060;-43
2021/05/28 10:07:27;;;;;;;2.85;0.37;;;38.30;19.60;;;;;;4388544;32;20181;-42
2021/05/28 10:09:54;;;;;;;1.65;0.20;;;38.20;19.80;;;;;;4375017;32;20068;-41
2021/05/28 10:12:25;;;;;;;2.12;0.40;;;38.40;19.80;;;;;;4388630;32;20161;-42
2021/05/28 10:14:52;;;;;;;0.95;0.30;;;38.40;19.90;;;;;;4388737;32;20150;-41
2021/05/28 10:17:20;;;;;;;4.15;0.30;;;38.50;20.10;;;;;;4388912;32;20070;-42
2021/05/28 10:19:47;;;;;;;2.10;0.20;;;38.80;20.10;;;;;;4375212;32;20541;-40
2021/05/28 10:22:14;;;;;;;0.60;0.45;;;38.70;19.80;;;;;;4389015;32;20057;-42
2021/05/28 10:24:40;;;;;;;2.70;0.20;;;38.60;19.70;;;;;;4403984;32;20069;-42
2021/05/28 10:27:07;;;;;;;1.95;0.20;;;38.50;19.80;;;;;;4403568;32;20069;-42
2021/05/28 10:29:34;;;;;;;1.08;0.28;;;38.40;19.70;;;;;;4364833;32;20073;-42
2021/05/28 10:32:11;;;;;;;0.10;0.10;;;38.40;19.70;;;;;;4389421;32;20065;-42
2021/05/28 10:35:17;;;;;;;4.45;0.30;;;38.60;19.30;;;;;;4403405;32;20081;-42
2021/05/28 10:37:44;;;;;;;3.42;0.30;;;38.90;19.40;;;;;;4403854;32;20150;-42
2021/05/28 10:40:31;;;;;;;8.38;0.45;;;39.20;19.40;;;;;;4389070;32;20517;-43
2021/05/28 10:43:05;;;;;;;2.58;0.20;;;39.40;19.50;;;;;;4403236;32;20062;-42
2021/05/28 10:45:53;;;;;;;6.50;0.37;;;39.70;19.30;;;;;;4403316;32;20536;-43
2021/05/28 10:48:42;;;;;;;1.83;0.20;;;39.90;19.20;;;;;;4403241;32;20069;-42
2021/05/28 10:51:24;;;;;;;1.42;0.28;;;40.10;19.20;;;;;;4403438;32;20238;-43
2021/05/28 10:53:53;;;;;;;5.60;0.50;;;40.20;18.70;;;;;;4403040;32;20144;-44
2021/05/28 10:56:25;;;;;;;0.90;0.30;;;40.10;18.70;;;;;;4403157;32;20057;-42
2021/05/28 10:59:02;;;;;;;3.67;0.40;;;40.10;18.80;;;;;;4403662;32;20079;-42
2021/05/28 11:01:53;;;;;;;1.02;0.30;;;39.90;18.90;;;;;;4403335;32;20069;-42
2021/05/28 11:04:30;;;;;;;2.10;0.35;;;39.70;18.90;;;;;;4403739;32;20600;-42
2021/05/28 11:06:58;;;;;;;2.50;0.20;;;39.50;18.90;;;;;;4403121;32;20101;-42
2021/05/28 11:09:42;;;;;;;1.00;0.30;;;39.50;18.90;;;;;;4403506;32;20139;-43
2021/05/28 11:12:13;;;;;;;24.90;3.40;;;39.70;19.00;;;;;;4403384;32;20100;-42
2021/05/28 11:15:02;;;;;;;1.05;0.20;;;39.80;18.90;;;;;;4403063;32;20085;-43
2021/05/28 11:17:28;;;;;;;5.20;0.20;;;39.90;18.70;;;;;;4403067;32;20093;-41
2021/05/28 11:19:57;;;;;;;12.73;0.45;;;39.90;18.50;;;;;;4389066;32;20069;-42
2021/05/28 11:22:32;;;;;;;1.73;0.45;;;39.90;18.40;;;;;;4387719;32;20621;-41
2021/05/28 11:25:03;;;;;;;3.35;0.30;;;39.90;18.30;;;;;;4373866;32;20092;-43
2021/05/28 11:27:32;;;;;;;9.65;0.40;;;39.90;18.10;;;;;;4387641;32;20064;-43
2021/05/28 11:30:04;;;;;;;7.95;0.30;;;39.90;18.10;;;;;;4388221;32;20062;-44
2021/05/28 11:32:43;;;;;;;4.28;0.30;;;39.90;18.10;;;;;;4387621;32;20071;-43
2021/05/28 11:35:24;;;;;;;6.57;0.77;;;39.90;18.10;;;;;;4387784;32;20117;-43
2021/05/28 11:37:56;;;;;;;6.50;0.30;;;39.90;18.50;;;;;;4387329;32;20051;-43
2021/05/28 11:40:44;;;;;;;6.40;0.30;;;40.00;18.40;;;;;;4354561;32;20058;-43
2021/05/28 11:43:18;;;;;;;2.22;0.30;;;40.10;18.30;;;;;;4355067;32;20101;-42
2021/05/28 11:45:50;;;;;;;4.10;0.62;;;40.20;18.30;;;;;;4355486;32;20142;-43
2021/05/28 11:48:18;;;;;;;0.30;0.20;;;40.00;18.50;;;;;;4355405;32;20102;-44
2021/05/28 11:50:59;;;;;;;3.15;0.20;;;39.80;18.10;;;;;;4356313;32;20164;-42
2021/05/28 11:53:37;;;;;;;2.10;0.30;;;39.70;18.20;;;;;;4358663;32;20178;-42
2021/05/28 11:56:04;;;;;;;17.25;0.80;;;39.70;18.30;;;;;;4346359;32;20158;-42
2021/05/28 11:58:34;;;;;;;3.62;0.40;;;39.50;18.50;;;;;;4346483;32;20291;-41
2021/05/28 12:01:02;;;;;;;9.80;0.65;;;39.40;18.90;;;;;;4357946;32;20657;-42
2021/05/28 12:03:29;;;;;;;2.25;0.32;;;39.40;19.00;;;;;;4358311;32;20163;-41
2021/05/28 12:05:55;;;;;;;0.75;0.30;;;39.30;19.20;;;;;;4357875;32;20120;-41
2021/05/28 12:08:28;;;;;;;3.33;0.40;;;39.20;19.20;;;;;;4346122;32;20094;-42
2021/05/28 12:10:57;;;;;;;0.85;0.40;;;39.20;19.20;;;;;;4367725;32;20146;-42
2021/05/28 12:13:33;;;;;;;2.97;0.20;;;39.10;19.30;;;;;;4390562;32;20521;-41
2021/05/28 12:16:05;;;;;;;6.90;0.30;;;39.10;19.40;;;;;;4390930;32;20068;-42
2021/05/28 12:18:37;;;;;;;8.00;1.25;;;39.10;19.50;;;;;;4390603;32;20498;-42
2021/05/28 12:21:13;;;;;;;2.53;0.30;;;39.00;19.50;;;;;;4390366;32;20058;-42
2021/05/28 12:23:44;;;;;;;3.28;0.30;;;39.20;19.80;;;;;;4390419;32;20062;-42
2021/05/28 12:26:29;;;;;;;10.20;0.50;;;39.40;20.00;;;;;;4390539;32;20068;-42
2021/05/28 12:29:02;;;;;;;6.82;0.50;;;39.50;20.10;;;;;;4390332;32;20077;-41
2021/05/28 12:31:30;;;;;;;6.28;0.40;;;39.60;20.40;;;;;;4390265;32;20062;-41
2021/05/28 12:34:05;;;;;;;7.25;0.40;;;39.70;20.50;;;;;;4390728;32;20445;-42
2021/05/28 12:36:43;;;;;;;1.80;0.30;;;39.80;20.40;;;;;;4390280;32;20062;-43
2021/05/28 12:39:11;;;;;;;3.17;0.50;;;39.90;20.20;;;;;;4389954;32;20068;-42
2021/05/28 12:41:42;;;;;;;1.75;0.40;;;40.00;20.10;;;;;;4390066;32;20089;-41
2021/05/28 12:44:09;;;;;;;2.42;0.40;;;40.00;20.20;;;;;;4390256;32;20064;-42
2021/05/28 12:46:37;;;;;;;2.05;0.40;;;40.00;20.10;;;;;;4388192;32;20054;-42
2021/05/28 12:49:09;;;;;;;4.05;0.40;;;40.00;20.10;;;;;;4388513;32;20593;-42
2021/05/28 12:51:46;;;;;;;3.25;0.40;;;40.10;20.40;;;;;;4388055;32;20087;-42
2021/05/28 12:54:24;;;;;;;1.62;0.52;;;40.10;20.40;;;;;;4389938;32;20136;-42